createdAt,value
2023-03-16T00:00:32.921Z,18.50
2023-03-16T00:03:20.833Z,18.17
2023-03-16T00:05:51.669Z,16.10
2023-03-16T00:08:21.479Z,17.33
2023-03-16T00:10:50.357Z,17.65
2023-03-16T00:13:23.811Z,17.70
2023-03-16T00:15:54.103Z,17.40
2023-03-16T00:18:27.393Z,15.10
2023-03-16T00:21:02.236Z,17.33
2023-03-16T00:23:35.682Z,18.02
2023-03-16T00:26:07.774Z,16.08
2023-03-16T00:28:37.946Z,16.73
2023-03-16T00:31:11.907Z,16.77
2023-03-16T00:33:44.020Z,17.40
2023-03-16T00:36:13.761Z,17.17
2023-03-16T00:38:45.236Z,17.73
2023-03-16T00:41:16.732Z,17.85
2023-03-16T00:43:46.160Z,16.95
2023-03-16T00:46:18.502Z,16.00
2023-03-16T00:48:49.488Z,15.68
2023-03-16T00:51:19.904Z,16.63
2023-03-16T00:53:49.095Z,14.88
2023-03-16T00:56:18.698Z,16.23
2023-03-16T00:58:47.788Z,16.20
2023-03-16T01:01:21.915Z,14.50
2023-03-16T01:03:52.506Z,14.55
2023-03-16T01:06:22.281Z,14.30
2023-03-16T01:08:52.422Z,15.10
2023-03-16T01:11:23.809Z,14.90
2023-03-16T01:13:54.443Z,14.35
2023-03-16T01:16:24.298Z,13.80
2023-03-16T01:18:55.302Z,15.18
2023-03-16T01:21:25.265Z,13.25
2023-03-16T01:23:54.861Z,14.82
2023-03-16T01:26:25.345Z,13.77
2023-03-16T01:28:55.036Z,13.65
2023-03-16T01:31:24.748Z,13.68
2023-03-16T01:33:55.279Z,14.38
2023-03-16T01:36:28.004Z,14.05
2023-03-16T01:39:02.350Z,13.35
2023-03-16T01:41:37.085Z,14.15
2023-03-16T01:44:06.709Z,14.30
2023-03-16T01:46:35.933Z,14.02
2023-03-16T01:49:14.698Z,13.13
2023-03-16T01:51:51.678Z,12.60
2023-03-16T01:54:27.575Z,13.13
2023-03-16T01:57:07.403Z,12.93
2023-03-16T01:59:44.104Z,13.10
2023-03-16T02:02:16.686Z,13.63
2023-03-16T02:04:55.536Z,12.60
2023-03-16T02:07:28.718Z,13.82
2023-03-16T02:10:02.489Z,12.23
2023-03-16T02:12:31.967Z,13.93
2023-03-16T02:15:03.578Z,12.95
2023-03-16T02:17:35.738Z,13.23
2023-03-16T02:20:26.385Z,13.45
2023-03-16T02:22:56.359Z,12.57
2023-03-16T02:25:36.027Z,13.23
2023-03-16T02:28:16.483Z,12.83
2023-03-16T02:30:49.755Z,14.35
2023-03-16T02:33:21.356Z,13.47
2023-03-16T02:35:50.719Z,14.48
2023-03-16T02:38:19.573Z,13.50
2023-03-16T02:41:01.100Z,14.50
2023-03-16T02:43:35.954Z,13.73
2023-03-16T02:46:21.644Z,14.68
2023-03-16T02:49:03.081Z,15.30
2023-03-16T02:51:33.186Z,14.98
2023-03-16T02:54:02.422Z,16.55
2023-03-16T02:56:34.482Z,16.73
2023-03-16T02:59:03.306Z,18.13
2023-03-16T03:01:36.655Z,17.35
2023-03-16T03:04:07.048Z,17.50
2023-03-16T03:06:36.483Z,16.83
2023-03-16T03:09:07.070Z,16.80
2023-03-16T03:11:36.302Z,16.33
2023-03-16T03:14:05.900Z,17.23
2023-03-16T03:16:37.245Z,16.80
2023-03-16T03:19:06.237Z,17.65
2023-03-16T03:21:39.093Z,16.73
2023-03-16T03:24:10.105Z,16.40
2023-03-16T03:26:39.691Z,17.00
2023-03-16T03:29:14.098Z,16.17
2023-03-16T03:31:44.748Z,15.73
2023-03-16T03:34:15.618Z,15.88
2023-03-16T03:36:44.780Z,16.37
2023-03-16T03:39:13.631Z,15.82
2023-03-16T03:41:42.971Z,15.70
2023-03-16T03:44:13.356Z,16.83
2023-03-16T03:46:44.093Z,15.97
2023-03-16T03:49:13.328Z,16.30
2023-03-16T03:51:42.525Z,15.63
2023-03-16T03:54:18.697Z,16.63
2023-03-16T03:57:10.069Z,14.50
2023-03-16T03:59:43.754Z,17.30
2023-03-16T04:02:32.955Z,16.63
2023-03-16T04:05:02.154Z,15.93
2023-03-16T04:07:32.364Z,16.57
2023-03-16T04:10:08.381Z,15.60
2023-03-16T04:12:41.630Z,17.17
2023-03-16T04:15:13.672Z,16.53
2023-03-16T04:17:56.741Z,16.63
2023-03-16T04:20:27.623Z,17.43
2023-03-16T04:22:58.816Z,16.08
2023-03-16T04:25:30.605Z,16.52
2023-03-16T04:28:02.127Z,17.30
2023-03-16T04:30:35.164Z,16.90
2023-03-16T04:33:22.886Z,17.20
2023-03-16T04:35:52.332Z,17.70
2023-03-16T04:38:23.469Z,17.63
2023-03-16T04:40:57.167Z,18.50
2023-03-16T04:43:34.381Z,16.70
2023-03-16T04:46:10.275Z,16.03
2023-03-16T04:48:41.398Z,15.50
2023-03-16T04:51:11.264Z,16.33
2023-03-16T04:53:45.981Z,16.80
2023-03-16T04:56:23.919Z,15.43
2023-03-16T04:58:58.641Z,16.90
2023-03-16T05:01:31.685Z,16.70
2023-03-16T05:04:05.073Z,17.40
2023-03-16T05:06:36.778Z,18.20
2023-03-16T05:09:08.533Z,17.02
2023-03-16T05:11:40.639Z,20.43
2023-03-16T05:14:12.500Z,20.00
2023-03-16T05:17:04.754Z,20.53
2023-03-16T05:19:36.256Z,19.50
2023-03-16T05:22:05.258Z,19.90
2023-03-16T05:24:34.843Z,19.40
2023-03-16T05:27:04.296Z,20.93
2023-03-16T05:29:34.445Z,19.27
2023-03-16T05:32:03.813Z,19.53
2023-03-16T05:34:35.824Z,16.50
2023-03-16T05:37:05.135Z,18.13
2023-03-16T05:39:35.805Z,17.60
2023-03-16T05:42:05.882Z,16.80
2023-03-16T05:44:51.179Z,16.43
2023-03-16T05:47:49.373Z,16.60
2023-03-16T05:50:21.776Z,16.87
2023-03-16T05:52:50.712Z,16.63
2023-03-16T05:55:24.669Z,16.33
2023-03-16T05:57:58.692Z,15.80
2023-03-16T06:00:30.155Z,15.43
2023-03-16T06:03:13.167Z,16.17
2023-03-16T06:05:43.698Z,15.17
2023-03-16T06:08:13.332Z,16.87
2023-03-16T06:10:47.412Z,18.33
2023-03-16T06:13:17.925Z,16.90
2023-03-16T06:15:47.152Z,18.77
2023-03-16T06:18:17.044Z,18.50
2023-03-16T06:20:49.584Z,17.97
2023-03-16T06:23:20.356Z,18.05
2023-03-16T06:25:51.381Z,18.27
2023-03-16T06:28:24.312Z,19.40
2023-03-16T06:30:55.896Z,18.45
2023-03-16T06:33:27.666Z,19.30
2023-03-16T06:35:58.192Z,17.92
2023-03-16T06:38:35.409Z,19.73
2023-03-16T06:41:40.209Z,19.38
2023-03-16T06:44:09.404Z,19.45
2023-03-16T06:46:43.847Z,19.25
2023-03-16T06:49:13.312Z,19.33
2023-03-16T06:51:44.283Z,20.33
2023-03-16T06:54:13.626Z,20.95
2023-03-16T06:56:43.664Z,19.58
2023-03-16T06:59:13.226Z,20.65
2023-03-16T07:01:42.415Z,20.08
2023-03-16T07:04:12.717Z,20.80
2023-03-16T07:06:44.809Z,20.55
2023-03-16T07:09:14.968Z,20.77
2023-03-16T07:11:44.814Z,20.50
2023-03-16T07:14:13.679Z,20.65
2023-03-16T07:16:43.821Z,20.35
2023-03-16T07:19:12.846Z,19.30
2023-03-16T07:21:42.092Z,19.52
2023-03-16T07:24:17.564Z,20.27
2023-03-16T07:26:47.825Z,18.95
2023-03-16T07:29:25.592Z,19.42
2023-03-16T07:31:55.464Z,19.70
2023-03-16T07:34:30.193Z,19.13
2023-03-16T07:37:01.110Z,19.95
2023-03-16T07:39:34.343Z,19.67
2023-03-16T07:42:10.175Z,20.40
2023-03-16T07:44:51.786Z,21.27
2023-03-16T07:47:22.145Z,21.15
2023-03-16T07:49:53.493Z,18.92
2023-03-16T07:52:23.081Z,18.42
2023-03-16T07:54:55.257Z,17.95
2023-03-16T07:57:24.458Z,17.50
2023-03-16T07:59:53.297Z,16.30
2023-03-16T08:02:22.901Z,15.73
2023-03-16T08:04:52.654Z,15.18
2023-03-16T08:07:22.168Z,15.55
2023-03-16T08:10:15.386Z,14.75
2023-03-16T08:12:54.940Z,15.00
2023-03-16T08:15:25.006Z,15.48
2023-03-16T08:18:02.422Z,16.10
2023-03-16T08:20:32.353Z,15.10
2023-03-16T08:23:01.707Z,15.75
2023-03-16T08:25:39.494Z,17.60
2023-03-16T08:28:12.724Z,15.48
2023-03-16T08:30:48.180Z,17.23
2023-03-16T08:33:39.764Z,14.65
2023-03-16T08:36:15.474Z,14.75
2023-03-16T08:39:03.824Z,14.05
2023-03-16T08:41:38.207Z,14.40
2023-03-16T08:44:13.004Z,14.70
2023-03-16T08:46:42.595Z,14.65
2023-03-16T08:49:13.678Z,13.20
2023-03-16T08:51:44.947Z,11.65
2023-03-16T08:54:16.049Z,7.82
2023-03-16T08:56:46.299Z,7.53
2023-03-16T08:59:28.759Z,7.82
2023-03-16T09:01:58.854Z,6.97
2023-03-16T09:04:30.005Z,7.45
2023-03-16T09:07:08.330Z,7.50
2023-03-16T09:09:39.798Z,6.45
2023-03-16T09:12:10.554Z,7.07
2023-03-16T09:14:40.469Z,8.00
2023-03-16T09:17:11.760Z,6.15
2023-03-16T09:19:50.973Z,5.70
2023-03-16T09:22:20.681Z,6.05
2023-03-16T09:24:51.330Z,5.20
2023-03-16T09:27:22.502Z,6.55
2023-03-16T09:29:53.174Z,6.95
2023-03-16T09:32:22.074Z,5.82
2023-03-16T09:34:51.720Z,3.95
2023-03-16T09:37:20.567Z,5.07
2023-03-16T09:39:50.223Z,4.53
2023-03-16T09:42:31.255Z,5.30
2023-03-16T09:45:15.763Z,5.85
2023-03-16T09:47:48.936Z,4.55
2023-03-16T09:50:30.276Z,5.10
2023-03-16T09:53:18.756Z,5.22
2023-03-16T09:55:55.347Z,5.30
2023-03-16T09:58:27.225Z,4.20
2023-03-16T10:01:10.859Z,3.42
2023-03-16T10:04:03.500Z,3.42
2023-03-16T10:06:33.209Z,4.20
2023-03-16T10:09:22.948Z,4.65
2023-03-16T10:11:58.248Z,3.80
2023-03-16T10:14:38.605Z,3.65
2023-03-16T10:17:17.124Z,4.00
2023-03-16T10:19:53.969Z,3.72
2023-03-16T10:22:26.518Z,3.45
2023-03-16T10:25:09.389Z,4.88
2023-03-16T10:27:42.121Z,4.63
2023-03-16T10:30:24.917Z,4.30
2023-03-16T10:32:54.667Z,4.90
2023-03-16T10:35:46.060Z,5.53
2023-03-16T10:38:31.104Z,4.90
2023-03-16T10:41:02.186Z,5.25
2023-03-16T10:43:32.246Z,5.93
2023-03-16T10:46:03.312Z,5.25
2023-03-16T10:48:34.980Z,5.43
2023-03-16T10:51:10.198Z,5.65
2023-03-16T10:53:45.648Z,6.05
2023-03-16T10:56:23.873Z,5.90
2023-03-16T10:58:54.248Z,7.65
2023-03-16T11:01:29.389Z,7.10
2023-03-16T11:04:00.892Z,6.07
2023-03-16T11:06:32.654Z,6.22
2023-03-16T11:09:08.960Z,6.68
2023-03-16T11:11:38.259Z,5.40
2023-03-16T11:14:15.413Z,5.72
2023-03-16T11:16:53.378Z,5.93
2023-03-16T11:19:29.252Z,5.38
2023-03-16T11:22:05.203Z,5.05
2023-03-16T11:24:46.700Z,5.40
2023-03-16T11:27:25.212Z,5.28
2023-03-16T11:30:09.779Z,6.13
2023-03-16T11:32:46.386Z,5.70
2023-03-16T11:35:19.595Z,4.93
2023-03-16T11:38:06.482Z,5.50
2023-03-16T11:40:49.281Z,4.40
2023-03-16T11:43:49.368Z,4.63
2023-03-16T11:46:24.956Z,3.38
2023-03-16T11:49:42.195Z,3.60
2023-03-16T11:52:24.719Z,3.90
2023-03-16T11:55:07.881Z,5.05
2023-03-16T11:57:54.968Z,4.35
2023-03-16T12:00:35.643Z,4.22
2023-03-16T12:03:34.116Z,4.07
2023-03-16T12:06:23.789Z,4.40
2023-03-16T12:09:30.270Z,3.90
2023-03-16T12:12:12.916Z,5.10
2023-03-16T12:14:55.517Z,5.38
2023-03-16T12:17:30.522Z,5.18
2023-03-16T12:20:07.169Z,4.63
2023-03-16T12:22:45.207Z,4.95
2023-03-16T12:25:22.252Z,4.57
2023-03-16T12:27:55.914Z,4.88
2023-03-16T12:30:42.557Z,5.07
2023-03-16T12:33:23.771Z,5.47
2023-03-16T12:36:03.392Z,5.47
2023-03-16T12:38:48.712Z,5.65
2023-03-16T12:41:34.581Z,5.38
2023-03-16T12:44:17.445Z,6.07
2023-03-16T12:46:59.392Z,6.72
2023-03-16T12:49:34.279Z,6.20
2023-03-16T12:52:07.092Z,5.88
2023-03-16T12:54:38.066Z,4.95
2023-03-16T12:57:10.651Z,4.18
2023-03-16T12:59:43.582Z,3.63
2023-03-16T13:02:19.630Z,3.38
2023-03-16T13:04:59.046Z,2.97
2023-03-16T13:07:32.209Z,3.25
2023-03-16T13:10:08.919Z,4.50
2023-03-16T13:12:41.918Z,5.25
2023-03-16T13:15:29.824Z,5.00
2023-03-16T13:18:25.007Z,5.00
2023-03-16T13:21:01.747Z,5.38
2023-03-16T13:23:58.052Z,5.00
2023-03-16T13:26:42.193Z,4.93
2023-03-16T13:29:28.042Z,4.85
2023-03-16T13:32:00.272Z,3.95
2023-03-16T13:34:32.381Z,4.15
2023-03-16T13:37:02.667Z,3.17
2023-03-16T13:39:33.724Z,3.50
2023-03-16T13:42:17.915Z,3.40
2023-03-16T13:44:48.057Z,4.10
2023-03-16T13:47:20.624Z,3.55
2023-03-16T13:49:53.445Z,3.60
2023-03-16T13:52:29.327Z,4.47
2023-03-16T13:55:01.044Z,3.28
2023-03-16T13:57:38.273Z,3.80
2023-03-16T14:00:20.482Z,3.60
2023-03-16T14:02:55.324Z,4.18
2023-03-16T14:05:33.231Z,4.20
2023-03-16T14:08:02.282Z,3.90
2023-03-16T14:10:36.074Z,3.88
2023-03-16T14:13:34.170Z,3.63
2023-03-16T14:16:12.896Z,3.50
2023-03-16T14:18:46.076Z,3.10
2023-03-16T14:21:20.712Z,4.13
2023-03-16T14:23:55.206Z,3.63
2023-03-16T14:26:25.081Z,3.65
2023-03-16T14:29:06.380Z,3.67
2023-03-16T14:31:38.765Z,4.22
2023-03-16T14:34:22.491Z,4.00
2023-03-16T14:36:51.563Z,3.88
2023-03-16T14:39:22.992Z,4.10
2023-03-16T14:41:53.603Z,4.10
2023-03-16T14:44:32.026Z,4.65
2023-03-16T14:47:02.619Z,4.72
2023-03-16T14:49:34.705Z,4.65
2023-03-16T14:52:07.629Z,3.70
2023-03-16T14:54:36.714Z,2.97
2023-03-16T14:57:07.236Z,3.13
2023-03-16T14:59:37.502Z,3.78
2023-03-16T15:02:17.447Z,3.55
2023-03-16T15:04:48.566Z,3.60
2023-03-16T15:07:26.739Z,3.72
2023-03-16T15:10:01.851Z,3.13
2023-03-16T15:12:30.998Z,3.50
2023-03-16T15:15:16.659Z,3.17
2023-03-16T15:17:46.914Z,3.53
2023-03-16T15:20:18.709Z,3.65
2023-03-16T15:22:49.736Z,4.18
2023-03-16T15:25:37.039Z,3.63
2023-03-16T15:28:15.868Z,3.83
2023-03-16T15:30:48.245Z,4.88
2023-03-16T15:33:18.214Z,3.45
2023-03-16T15:35:50.342Z,2.85
2023-03-16T15:38:24.200Z,3.20
2023-03-16T15:40:54.626Z,2.65
2023-03-16T15:43:27.306Z,2.95
2023-03-16T15:45:59.984Z,3.75
2023-03-16T15:48:29.200Z,2.65
2023-03-16T15:51:01.903Z,2.83
2023-03-16T15:53:37.761Z,2.60
2023-03-16T15:56:10.653Z,2.90
2023-03-16T15:58:45.918Z,3.03
2023-03-16T16:01:25.473Z,3.70
2023-03-16T16:03:56.144Z,2.90
2023-03-16T16:06:25.197Z,2.75
2023-03-16T16:08:54.334Z,2.60
2023-03-16T16:11:27.531Z,2.47
2023-03-16T16:13:59.432Z,3.05
2023-03-16T16:16:33.219Z,3.17
2023-03-16T16:19:02.392Z,3.20
2023-03-16T16:21:31.640Z,3.08
2023-03-16T16:24:02.276Z,3.20
2023-03-16T16:26:55.159Z,3.45
2023-03-16T16:29:27.221Z,3.67
2023-03-16T16:31:57.553Z,3.55
2023-03-16T16:34:28.047Z,4.75
2023-03-16T16:36:58.525Z,3.88
2023-03-16T16:39:28.141Z,4.60
2023-03-16T16:41:58.105Z,3.80
2023-03-16T16:44:34.031Z,4.53
2023-03-16T16:47:16.962Z,4.80
2023-03-16T16:49:46.563Z,5.25
2023-03-16T16:52:18.479Z,5.68
2023-03-16T16:54:47.745Z,5.90
2023-03-16T16:57:20.887Z,6.55
2023-03-16T16:59:50.982Z,6.20
2023-03-16T17:02:32.135Z,7.00
2023-03-16T17:05:01.455Z,6.70
2023-03-16T17:07:30.884Z,6.93
2023-03-16T17:10:00.090Z,6.60
2023-03-16T17:12:29.645Z,6.05
2023-03-16T17:14:58.911Z,6.78
2023-03-16T17:17:29.252Z,6.07
2023-03-16T17:19:58.324Z,7.60
2023-03-16T17:22:30.388Z,6.45
2023-03-16T17:25:00.474Z,6.50
2023-03-16T17:27:33.049Z,7.10
2023-03-16T17:30:03.118Z,7.90
2023-03-16T17:32:33.896Z,8.45
2023-03-16T17:35:03.086Z,8.88
2023-03-16T17:37:32.052Z,8.07
2023-03-16T17:40:01.581Z,8.48
2023-03-16T17:42:30.461Z,9.63
2023-03-16T17:45:00.149Z,9.85
2023-03-16T17:47:38.498Z,9.63
2023-03-16T17:50:24.480Z,8.48
2023-03-16T17:52:54.248Z,8.82
2023-03-16T17:55:25.032Z,8.50
2023-03-16T17:57:57.064Z,8.55
2023-03-16T18:00:31.834Z,8.65
2023-03-16T18:03:05.633Z,9.85
2023-03-16T18:05:37.652Z,8.65
2023-03-16T18:08:17.464Z,10.05
2023-03-16T18:10:49.621Z,9.73
2023-03-16T18:13:24.216Z,9.93
2023-03-16T18:15:55.859Z,10.38
2023-03-16T18:18:29.130Z,10.30
2023-03-16T18:21:00.574Z,11.40
2023-03-16T18:23:33.570Z,11.32
2023-03-16T18:26:06.824Z,13.23
2023-03-16T18:28:36.540Z,11.95
2023-03-16T18:31:08.030Z,11.80
2023-03-16T18:33:42.460Z,12.00
2023-03-16T18:36:18.818Z,13.07
2023-03-16T18:38:50.661Z,12.88
2023-03-16T18:41:24.772Z,13.25
2023-03-16T18:43:57.636Z,15.40
2023-03-16T18:46:30.384Z,21.05
2023-03-16T18:49:04.090Z,24.17
2023-03-16T18:51:33.347Z,21.60
2023-03-16T18:54:03.547Z,24.70
2023-03-16T18:56:33.035Z,32.78
2023-03-16T18:59:02.440Z,28.95
2023-03-16T19:01:37.939Z,27.27
2023-03-16T19:04:19.838Z,25.80
2023-03-16T19:06:52.056Z,23.58
2023-03-16T19:09:23.383Z,21.10
2023-03-16T19:11:52.857Z,20.95
2023-03-16T19:14:24.602Z,21.63
2023-03-16T19:16:56.265Z,27.63
2023-03-16T19:19:28.002Z,28.10
2023-03-16T19:22:04.548Z,26.13
2023-03-16T19:24:42.573Z,26.23
2023-03-16T19:27:22.487Z,24.10
2023-03-16T19:29:52.709Z,24.58
2023-03-16T19:32:24.667Z,26.48
2023-03-16T19:34:54.904Z,26.25
2023-03-16T19:37:26.740Z,25.98
2023-03-16T19:39:56.110Z,28.05
2023-03-16T19:42:33.696Z,29.80
2023-03-16T19:45:03.934Z,30.08
2023-03-16T19:47:36.680Z,32.10
2023-03-16T19:50:17.584Z,27.80
2023-03-16T19:52:47.618Z,26.10
2023-03-16T19:55:39.449Z,27.58
2023-03-16T19:58:20.996Z,27.27
2023-03-16T20:00:51.132Z,28.20
2023-03-16T20:03:20.741Z,30.10
2023-03-16T20:05:53.746Z,31.17
2023-03-16T20:08:26.298Z,38.10
2023-03-16T20:11:08.720Z,40.25
2023-03-16T20:13:38.534Z,37.88
2023-03-16T20:16:12.609Z,34.72
2023-03-16T20:18:42.337Z,37.53
2023-03-16T20:21:17.729Z,37.42
2023-03-16T20:23:49.907Z,36.78
2023-03-16T20:26:23.330Z,35.35
2023-03-16T20:28:53.422Z,34.63
2023-03-16T20:31:25.751Z,34.53
2023-03-16T20:33:56.240Z,35.20
2023-03-16T20:36:29.174Z,35.53
2023-03-16T20:38:58.459Z,34.83
2023-03-16T20:41:32.364Z,34.10
2023-03-16T20:44:03.233Z,36.38
2023-03-16T20:46:34.453Z,35.53
2023-03-16T20:49:03.820Z,33.75
2023-03-16T20:51:34.042Z,33.22
2023-03-16T20:54:03.175Z,31.95
2023-03-16T20:56:32.389Z,31.00
2023-03-16T20:59:01.641Z,31.88
2023-03-16T21:01:32.162Z,31.23
2023-03-16T21:04:01.408Z,29.23
2023-03-16T21:06:34.493Z,27.63
2023-03-16T21:09:03.658Z,29.20
2023-03-16T21:11:37.968Z,28.90
2023-03-16T21:14:16.616Z,29.17
2023-03-16T21:16:46.152Z,31.13
2023-03-16T21:19:17.692Z,30.38
2023-03-16T21:21:47.954Z,30.45
2023-03-16T21:24:17.477Z,29.42
2023-03-16T21:26:47.569Z,31.13
2023-03-16T21:29:21.975Z,28.33
2023-03-16T21:31:51.868Z,28.88
2023-03-16T21:34:27.482Z,31.42
2023-03-16T21:36:59.348Z,30.15
2023-03-16T21:39:29.352Z,28.38
2023-03-16T21:41:58.160Z,28.35
2023-03-16T21:44:27.293Z,27.85
2023-03-16T21:46:56.276Z,27.05
2023-03-16T21:49:25.596Z,29.65
2023-03-16T21:51:54.619Z,30.60
2023-03-16T21:54:25.082Z,28.42
2023-03-16T21:56:53.924Z,28.75
2023-03-16T21:59:23.912Z,30.10
2023-03-16T22:02:01.542Z,30.30
2023-03-16T22:04:31.720Z,29.73
2023-03-16T22:07:00.547Z,29.75
2023-03-16T22:09:32.915Z,29.40
2023-03-16T22:12:01.680Z,30.60
2023-03-16T22:14:31.044Z,28.63
2023-03-16T22:16:59.894Z,29.20
2023-03-16T22:19:29.415Z,30.77
2023-03-16T22:21:58.615Z,30.10
2023-03-16T22:24:34.870Z,33.40
2023-03-16T22:27:04.370Z,29.75
2023-03-16T22:29:34.514Z,29.38
2023-03-16T22:32:08.700Z,28.23
2023-03-16T22:34:45.220Z,30.63
2023-03-16T22:37:20.310Z,30.90
2023-03-16T22:39:51.614Z,30.67
2023-03-16T22:42:35.862Z,30.27
2023-03-16T22:45:16.942Z,30.02
2023-03-16T22:47:47.802Z,30.20
2023-03-16T22:50:18.679Z,29.40
2023-03-16T22:52:51.236Z,30.85
2023-03-16T22:55:28.206Z,29.70
2023-03-16T22:58:12.300Z,30.60
2023-03-16T23:00:41.638Z,29.73
2023-03-16T23:03:18.975Z,29.63
2023-03-16T23:05:48.351Z,30.10
2023-03-16T23:08:21.178Z,32.90
2023-03-16T23:10:53.561Z,28.75
2023-03-16T23:13:27.097Z,30.38
2023-03-16T23:15:56.948Z,30.73
2023-03-16T23:18:27.618Z,32.20
2023-03-16T23:20:57.303Z,32.65
2023-03-16T23:23:26.131Z,32.10
2023-03-16T23:25:56.734Z,32.67
2023-03-16T23:28:26.178Z,34.33
2023-03-16T23:30:55.537Z,30.67
2023-03-16T23:33:24.324Z,34.30
2023-03-16T23:35:53.408Z,34.45
2023-03-16T23:38:22.408Z,33.05
2023-03-16T23:40:51.482Z,34.35
2023-03-16T23:43:21.711Z,35.05
2023-03-16T23:45:51.249Z,37.70
2023-03-16T23:48:23.656Z,36.45
2023-03-16T23:50:56.350Z,39.40
2023-03-16T23:53:25.620Z,37.20
2023-03-16T23:55:54.700Z,38.85
2023-03-16T23:58:24.954Z,37.20
